チワワ の空港の天気 - METARとTAF

ヘネラル・ロベルト・フィエロ・ヴィラロボス国際空港 ( MMCU / CUU ) - メキシコ [チワワ州]]、[[チワワ (チワワ州)|チワワ]]
飛行場実況気象(Metar)
観測時間12/01 16:40 MST (12/01 23:40 UTC)
風向・風速東 4m/s
視程10km以上
天気現象
なし
気温17℃
湿度25%
気圧1011.8hPa
METARMMCU 012340Z 08008KT 10SM SKC 17/M03 A2998 RMK SLP118 57010 994
過去の天気等 Google飛行場航空写真 Wunderground天気予報

過去48時間のMETAR

飛行場予報(TAF)
発表時間: 12/01 10:14 MST (12/01 17:14 UTC)
予報対象時間: 1日11時 MST ~ 2日11時 MST
風向・風速東 5m/s
視程10km以上
なし
1日20時 MST から
風向・風速西北西 5m/s
視程10km以上
なし
2日1時 MST ~ 2日2時 MST に徐々に
風向・風速北北西 8m/s
2日9時 MST から
風向・風速北 5m/s
視程10km以上
なし
TAF MMCU 011714Z 0118/0218 08010KT P6SM SKC
FM020300 30010KT P6SM SKC
BECMG 0208/0209 33015KT
FM021600 35010KT P6SM SKC